sensor_id;sensor_type;location;lat;lon;timestamp;temperature;humidity
2174;DHT22;1093;51.424;11.764;2023-03-16T13:05:10;8.80;1.40
2174;DHT22;1093;51.424;11.764;2023-03-16T13:07:45;8.70;1.40
2174;DHT22;1093;51.424;11.764;2023-03-16T13:10:14;8.70;1.40
2174;DHT22;1093;51.424;11.764;2023-03-16T13:12:42;8.90;1.40
2174;DHT22;1093;51.424;11.764;2023-03-16T13:15:25;9.00;1.40
2174;DHT22;1093;51.424;11.764;2023-03-16T13:18:04;9.10;1.40
2174;DHT22;1093;51.424;11.764;2023-03-16T13:20:34;9.30;1.40
2174;DHT22;1093;51.424;11.764;2023-03-16T13:23:18;9.30;1.40
2174;DHT22;1093;51.424;11.764;2023-03-16T13:25:59;9.50;1.40
2174;DHT22;1093;51.424;11.764;2023-03-16T13:28:28;9.60;1.40
2174;DHT22;1093;51.424;11.764;2023-03-16T13:30:55;9.60;1.40
2174;DHT22;1093;51.424;11.764;2023-03-16T13:33:24;9.70;1.40
2174;DHT22;1093;51.424;11.764;2023-03-16T13:35:55;9.70;1.40
2174;DHT22;1093;51.424;11.764;2023-03-16T13:38:26;9.80;1.40
2174;DHT22;1093;51.424;11.764;2023-03-16T13:40:56;10.00;1.40
2174;DHT22;1093;51.424;11.764;2023-03-16T13:43:25;10.00;1.40
2174;DHT22;1093;51.424;11.764;2023-03-16T13:45:53;10.10;1.40
2174;DHT22;1093;51.424;11.764;2023-03-16T13:48:21;10.10;1.40
2174;DHT22;1093;51.424;11.764;2023-03-16T13:50:50;10.00;1.40
2174;DHT22;1093;51.424;11.764;2023-03-16T13:53:22;10.00;1.40
2174;DHT22;1093;51.424;11.764;2023-03-16T13:55:51;10.00;1.40
2174;DHT22;1093;51.424;11.764;2023-03-16T13:58:22;10.10;1.40
2174;DHT22;1093;51.424;11.764;2023-03-16T14:00:54;10.10;1.40
2174;DHT22;1093;51.424;11.764;2023-03-16T14:03:22;10.10;1.40
2174;DHT22;1093;51.424;11.764;2023-03-16T14:05:49;10.10;1.40
2174;DHT22;1093;51.424;11.764;2023-03-16T14:08:19;10.20;1.40
2174;DHT22;1093;51.424;11.764;2023-03-16T14:10:47;10.00;1.40
2174;DHT22;1093;51.424;11.764;2023-03-16T14:13:30;10.00;1.40
2174;DHT22;1093;51.424;11.764;2023-03-16T14:15:59;10.10;1.40
2174;DHT22;1093;51.424;11.764;2023-03-16T14:18:33;10.10;1.40
2174;DHT22;1093;51.424;11.764;2023-03-16T14:21:05;10.10;1.40
2174;DHT22;1093;51.424;11.764;2023-03-16T14:23:37;10.10;1.40
2174;DHT22;1093;51.424;11.764;2023-03-16T14:26:10;10.00;1.40
2174;DHT22;1093;51.424;11.764;2023-03-16T14:28:40;10.00;1.40
2174;DHT22;1093;51.424;11.764;2023-03-16T14:31:10;10.10;1.40
2174;DHT22;1093;51.424;11.764;2023-03-16T14:36:34;9.90;1.40
2174;DHT22;1093;51.424;11.764;2023-03-16T14:39:13;9.90;1.40
2174;DHT22;1093;51.424;11.764;2023-03-16T14:41:41;9.70;1.40
2174;DHT22;1093;51.424;11.764;2023-03-16T14:44:17;9.70;1.40
2174;DHT22;1093;51.424;11.764;2023-03-16T14:46:46;9.70;1.40
2174;DHT22;1093;51.424;11.764;2023-03-16T14:49:20;9.70;1.40
2174;DHT22;1093;51.424;11.764;2023-03-16T14:51:59;9.80;1.40
2174;DHT22;1093;51.424;11.764;2023-03-16T14:54:34;9.70;1.40
2174;DHT22;1093;51.424;11.764;2023-03-16T14:57:03;9.80;1.40
2174;DHT22;1093;51.424;11.764;2023-03-16T14:59:31;9.80;1.40
2174;DHT22;1093;51.424;11.764;2023-03-16T15:02:14;9.70;1.40
2174;DHT22;1093;51.424;11.764;2023-03-16T15:04:44;9.70;1.40
2174;DHT22;1093;51.424;11.764;2023-03-16T15:07:21;9.80;1.40
2174;DHT22;1093;51.424;11.764;2023-03-16T15:09:55;9.70;1.40
2174;DHT22;1093;51.424;11.764;2023-03-16T15:12:31;9.70;1.40
2174;DHT22;1093;51.424;11.764;2023-03-16T15:14:59;9.70;1.40
2174;DHT22;1093;51.424;11.764;2023-03-16T15:17:43;9.50;1.40
2174;DHT22;1093;51.424;11.764;2023-03-16T15:20:13;9.60;1.40
2174;DHT22;1093;51.424;11.764;2023-03-16T15:22:42;9.60;1.40
2174;DHT22;1093;51.424;11.764;2023-03-16T15:25:31;9.50;1.40
2174;DHT22;1093;51.424;11.764;2023-03-16T15:28:02;9.40;1.40
2174;DHT22;1093;51.424;11.764;2023-03-16T15:30:30;9.50;1.40
2174;DHT22;1093;51.424;11.764;2023-03-16T15:33:07;9.50;1.40
2174;DHT22;1093;51.424;11.764;2023-03-16T15:35:41;9.50;1.40
2174;DHT22;1093;51.424;11.764;2023-03-16T15:38:13;9.40;1.40
2174;DHT22;1093;51.424;11.764;2023-03-16T15:40:50;9.30;1.40
2174;DHT22;1093;51.424;11.764;2023-03-16T15:43:25;9.40;1.40
2174;DHT22;1093;51.424;11.764;2023-03-16T15:46:09;9.40;1.40
2174;DHT22;1093;51.424;11.764;2023-03-16T15:48:47;9.40;1.40
2174;DHT22;1093;51.424;11.764;2023-03-16T15:51:21;9.30;1.40
2174;DHT22;1093;51.424;11.764;2023-03-16T15:53:50;9.20;1.40
2174;DHT22;1093;51.424;11.764;2023-03-16T15:56:23;9.20;1.40
2174;DHT22;1093;51.424;11.764;2023-03-16T15:58:57;9.20;1.40
2174;DHT22;1093;51.424;11.764;2023-03-16T16:01:29;9.10;1.40
2174;DHT22;1093;51.424;11.764;2023-03-16T16:03:59;9.20;1.40
2174;DHT22;1093;51.424;11.764;2023-03-16T16:06:47;9.10;1.40
2174;DHT22;1093;51.424;11.764;2023-03-16T16:09:18;8.90;1.40
2174;DHT22;1093;51.424;11.764;2023-03-16T16:11:48;8.90;1.40
2174;DHT22;1093;51.424;11.764;2023-03-16T16:14:18;8.90;1.40
2174;DHT22;1093;51.424;11.764;2023-03-16T16:16:49;8.80;1.40
2174;DHT22;1093;51.424;11.764;2023-03-16T16:19:18;8.80;1.40
2174;DHT22;1093;51.424;11.764;2023-03-16T16:21:52;8.80;1.40
2174;DHT22;1093;51.424;11.764;2023-03-16T16:24:23;8.80;1.40
2174;DHT22;1093;51.424;11.764;2023-03-16T16:26:52;8.70;1.40
2174;DHT22;1093;51.424;11.764;2023-03-16T16:29:21;8.60;1.40
2174;DHT22;1093;51.424;11.764;2023-03-16T16:31:56;8.60;1.40
2174;DHT22;1093;51.424;11.764;2023-03-16T16:34:24;8.60;1.40
2174;DHT22;1093;51.424;11.764;2023-03-16T16:37:05;8.60;1.40
2174;DHT22;1093;51.424;11.764;2023-03-16T16:39:35;8.60;1.40
2174;DHT22;1093;51.424;11.764;2023-03-16T16:42:04;8.50;1.40
2174;DHT22;1093;51.424;11.764;2023-03-16T16:44:31;8.50;1.40
2174;DHT22;1093;51.424;11.764;2023-03-16T16:46:58;8.50;1.40
2174;DHT22;1093;51.424;11.764;2023-03-16T16:49:27;8.40;1.40
2174;DHT22;1093;51.424;11.764;2023-03-16T16:51:59;8.30;1.40
2174;DHT22;1093;51.424;11.764;2023-03-16T16:54:28;8.30;1.40
2174;DHT22;1093;51.424;11.764;2023-03-16T16:56:56;8.20;1.40
2174;DHT22;1093;51.424;11.764;2023-03-16T16:59:29;8.10;1.40
2174;DHT22;1093;51.424;11.764;2023-03-16T17:01:59;8.00;1.40
2174;DHT22;1093;51.424;11.764;2023-03-16T17:04:31;7.90;1.40
2174;DHT22;1093;51.424;11.764;2023-03-16T17:07:10;7.90;1.40
2174;DHT22;1093;51.424;11.764;2023-03-16T17:09:54;7.90;1.40
2174;DHT22;1093;51.424;11.764;2023-03-16T17:12:23;7.90;1.40
2174;DHT22;1093;51.424;11.764;2023-03-16T17:14:52;7.80;1.40
2174;DHT22;1093;51.424;11.764;2023-03-16T17:17:19;7.80;1.40
2174;DHT22;1093;51.424;11.764;2023-03-16T17:20:36;7.80;1.40
2174;DHT22;1093;51.424;11.764;2023-03-16T17:22:53;7.80;1.40
2174;DHT22;1093;51.424;11.764;2023-03-16T17:25:20;7.80;1.40
2174;DHT22;1093;51.424;11.764;2023-03-16T17:28:00;7.70;1.40
2174;DHT22;1093;51.424;11.764;2023-03-16T17:30:29;7.60;1.40
2174;DHT22;1093;51.424;11.764;2023-03-16T17:33:01;7.50;1.40
2174;DHT22;1093;51.424;11.764;2023-03-16T17:35:32;7.50;1.40
2174;DHT22;1093;51.424;11.764;2023-03-16T17:38:18;7.40;1.40
2174;DHT22;1093;51.424;11.764;2023-03-16T17:40:46;7.40;1.40
2174;DHT22;1093;51.424;11.764;2023-03-16T17:43:27;7.30;1.40
2174;DHT22;1093;51.424;11.764;2023-03-16T17:45:58;7.20;1.40
2174;DHT22;1093;51.424;11.764;2023-03-16T17:48:30;7.20;1.40
2174;DHT22;1093;51.424;11.764;2023-03-16T17:50:58;7.10;1.40
2174;DHT22;1093;51.424;11.764;2023-03-16T17:53:27;7.00;1.40
2174;DHT22;1093;51.424;11.764;2023-03-16T17:55:54;7.10;1.40
2174;DHT22;1093;51.424;11.764;2023-03-16T17:58:27;7.00;1.40
2174;DHT22;1093;51.424;11.764;2023-03-16T18:00:57;7.00;1.40
2174;DHT22;1093;51.424;11.764;2023-03-16T18:03:28;6.90;1.40
2174;DHT22;1093;51.424;11.764;2023-03-16T18:06:00;6.90;1.40
2174;DHT22;1093;51.424;11.764;2023-03-16T18:08:30;6.90;1.40
2174;DHT22;1093;51.424;11.764;2023-03-16T18:11:03;6.90;1.40
2174;DHT22;1093;51.424;11.764;2023-03-16T18:13:32;6.80;1.40
2174;DHT22;1093;51.424;11.764;2023-03-16T18:16:05;6.80;1.40
2174;DHT22;1093;51.424;11.764;2023-03-16T18:18:36;6.70;1.40
2174;DHT22;1093;51.424;11.764;2023-03-16T18:21:14;6.80;1.40
2174;DHT22;1093;51.424;11.764;2023-03-16T18:23:56;6.70;1.40
2174;DHT22;1093;51.424;11.764;2023-03-16T18:26:28;6.60;1.40
2174;DHT22;1093;51.424;11.764;2023-03-16T18:29:02;6.60;1.40
2174;DHT22;1093;51.424;11.764;2023-03-16T18:31:41;6.60;1.40
2174;DHT22;1093;51.424;11.764;2023-03-16T18:34:29;6.50;1.40
2174;DHT22;1093;51.424;11.764;2023-03-16T18:37:12;6.50;1.40
2174;DHT22;1093;51.424;11.764;2023-03-16T18:39:43;6.30;1.40
2174;DHT22;1093;51.424;11.764;2023-03-16T18:42:17;6.20;1.40
2174;DHT22;1093;51.424;11.764;2023-03-16T18:44:47;6.20;1.40
2174;DHT22;1093;51.424;11.764;2023-03-16T18:47:19;6.10;1.40
2174;DHT22;1093;51.424;11.764;2023-03-16T18:49:47;6.00;1.40
2174;DHT22;1093;51.424;11.764;2023-03-16T18:52:19;6.00;1.40
2174;DHT22;1093;51.424;11.764;2023-03-16T18:54:46;6.00;1.40
2174;DHT22;1093;51.424;11.764;2023-03-16T18:57:16;5.90;1.40
2174;DHT22;1093;51.424;11.764;2023-03-16T18:59:44;5.90;1.40
2174;DHT22;1093;51.424;11.764;2023-03-16T19:02:26;5.90;1.40
2174;DHT22;1093;51.424;11.764;2023-03-16T19:04:54;5.90;1.40
2174;DHT22;1093;51.424;11.764;2023-03-16T19:07:29;5.80;1.40
2174;DHT22;1093;51.424;11.764;2023-03-16T19:10:06;5.80;1.40
2174;DHT22;1093;51.424;11.764;2023-03-16T19:12:38;5.80;1.40
2174;DHT22;1093;51.424;11.764;2023-03-16T19:15:16;5.70;1.40
2174;DHT22;1093;51.424;11.764;2023-03-16T19:17:46;5.70;1.40
2174;DHT22;1093;51.424;11.764;2023-03-16T19:20:15;5.60;1.40
2174;DHT22;1093;51.424;11.764;2023-03-16T19:22:44;5.60;1.40
2174;DHT22;1093;51.424;11.764;2023-03-16T19:25:16;5.50;1.40
2174;DHT22;1093;51.424;11.764;2023-03-16T19:27:44;5.50;1.40
2174;DHT22;1093;51.424;11.764;2023-03-16T19:30:20;5.50;1.40
2174;DHT22;1093;51.424;11.764;2023-03-16T19:32:51;5.40;1.40
2174;DHT22;1093;51.424;11.764;2023-03-16T19:35:20;5.40;1.40
2174;DHT22;1093;51.424;11.764;2023-03-16T19:37:48;5.30;1.40
2174;DHT22;1093;51.424;11.764;2023-03-16T19:40:17;5.30;1.40
2174;DHT22;1093;51.424;11.764;2023-03-16T19:42:45;5.30;1.40
2174;DHT22;1093;51.424;11.764;2023-03-16T19:45:22;5.20;1.40
2174;DHT22;1093;51.424;11.764;2023-03-16T19:47:57;5.20;1.40
2174;DHT22;1093;51.424;11.764;2023-03-16T19:50:26;5.20;1.40
2174;DHT22;1093;51.424;11.764;2023-03-16T19:52:57;5.10;1.40
2174;DHT22;1093;51.424;11.764;2023-03-16T19:55:30;5.00;1.40
2174;DHT22;1093;51.424;11.764;2023-03-16T19:57:59;5.00;1.40
2174;DHT22;1093;51.424;11.764;2023-03-16T20:00:28;5.00;1.40
2174;DHT22;1093;51.424;11.764;2023-03-16T20:03:00;5.00;1.40
2174;DHT22;1093;51.424;11.764;2023-03-16T20:05:53;4.90;1.40
2174;DHT22;1093;51.424;11.764;2023-03-16T20:08:31;4.90;1.40
2174;DHT22;1093;51.424;11.764;2023-03-16T20:11:01;4.80;1.40
2174;DHT22;1093;51.424;11.764;2023-03-16T20:13:29;4.80;1.40
2174;DHT22;1093;51.424;11.764;2023-03-16T20:15:56;4.80;1.40
2174;DHT22;1093;51.424;11.764;2023-03-16T20:18:25;4.80;1.40
2174;DHT22;1093;51.424;11.764;2023-03-16T20:21:04;4.80;1.40
2174;DHT22;1093;51.424;11.764;2023-03-16T20:23:35;4.80;1.40
2174;DHT22;1093;51.424;11.764;2023-03-16T20:26:14;4.80;1.40
2174;DHT22;1093;51.424;11.764;2023-03-16T20:28:45;4.80;1.40
2174;DHT22;1093;51.424;11.764;2023-03-16T20:31:20;4.80;1.40
2174;DHT22;1093;51.424;11.764;2023-03-16T20:33:51;4.80;1.40
2174;DHT22;1093;51.424;11.764;2023-03-16T20:36:20;4.70;1.40
2174;DHT22;1093;51.424;11.764;2023-03-16T20:38:47;4.70;1.40
2174;DHT22;1093;51.424;11.764;2023-03-16T20:41:25;4.60;1.40
2174;DHT22;1093;51.424;11.764;2023-03-16T20:43:54;4.60;1.40
2174;DHT22;1093;51.424;11.764;2023-03-16T20:46:24;4.50;1.40
2174;DHT22;1093;51.424;11.764;2023-03-16T20:48:55;4.50;1.40
2174;DHT22;1093;51.424;11.764;2023-03-16T20:51:23;4.50;1.40
2174;DHT22;1093;51.424;11.764;2023-03-16T20:53:50;4.40;1.40
2174;DHT22;1093;51.424;11.764;2023-03-16T20:56:22;4.40;1.40
2174;DHT22;1093;51.424;11.764;2023-03-16T20:58:50;4.30;1.40
2174;DHT22;1093;51.424;11.764;2023-03-16T21:01:22;4.30;1.40
2174;DHT22;1093;51.424;11.764;2023-03-16T21:03:51;4.30;1.40
2174;DHT22;1093;51.424;11.764;2023-03-16T21:06:22;4.40;1.40
2174;DHT22;1093;51.424;11.764;2023-03-16T21:08:50;4.30;1.40
2174;DHT22;1093;51.424;11.764;2023-03-16T21:11:20;4.20;1.40
2174;DHT22;1093;51.424;11.764;2023-03-16T21:13:48;4.30;1.40
2174;DHT22;1093;51.424;11.764;2023-03-16T21:16:16;4.30;1.40
2174;DHT22;1093;51.424;11.764;2023-03-16T21:18:44;4.20;1.40
2174;DHT22;1093;51.424;11.764;2023-03-16T21:21:13;4.20;1.40
2174;DHT22;1093;51.424;11.764;2023-03-16T21:23:42;4.20;1.40
2174;DHT22;1093;51.424;11.764;2023-03-16T21:26:14;4.30;1.40
2174;DHT22;1093;51.424;11.764;2023-03-16T21:28:42;4.20;1.40
2174;DHT22;1093;51.424;11.764;2023-03-16T21:31:14;4.20;1.40
2174;DHT22;1093;51.424;11.764;2023-03-16T21:33:50;4.10;1.40
2174;DHT22;1093;51.424;11.764;2023-03-16T21:36:19;4.10;1.40
2174;DHT22;1093;51.424;11.764;2023-03-16T21:38:49;4.10;1.40
2174;DHT22;1093;51.424;11.764;2023-03-16T21:41:18;4.10;1.40
2174;DHT22;1093;51.424;11.764;2023-03-16T21:43:49;4.00;1.40
2174;DHT22;1093;51.424;11.764;2023-03-16T21:46:20;4.00;1.40
2174;DHT22;1093;51.424;11.764;2023-03-16T21:48:54;4.00;1.40
2174;DHT22;1093;51.424;11.764;2023-03-16T21:51:25;3.90;1.40
2174;DHT22;1093;51.424;11.764;2023-03-16T21:53:54;3.90;1.40
2174;DHT22;1093;51.424;11.764;2023-03-16T21:56:23;3.90;1.40
2174;DHT22;1093;51.424;11.764;2023-03-16T21:58:52;3.80;1.40
2174;DHT22;1093;51.424;11.764;2023-03-16T22:01:23;3.80;1.40
2174;DHT22;1093;51.424;11.764;2023-03-16T22:03:51;3.80;1.40
2174;DHT22;1093;51.424;11.764;2023-03-16T22:06:19;3.80;1.40
2174;DHT22;1093;51.424;11.764;2023-03-16T22:08:46;3.90;1.40
2174;DHT22;1093;51.424;11.764;2023-03-16T22:11:18;3.90;1.40
2174;DHT22;1093;51.424;11.764;2023-03-16T22:13:45;4.00;1.40
2174;DHT22;1093;51.424;11.764;2023-03-16T22:16:13;4.00;1.40
2174;DHT22;1093;51.424;11.764;2023-03-16T22:18:42;4.00;1.40
2174;DHT22;1093;51.424;11.764;2023-03-16T22:21:21;4.00;1.40
2174;DHT22;1093;51.424;11.764;2023-03-16T22:23:50;3.90;1.40
2174;DHT22;1093;51.424;11.764;2023-03-16T22:26:20;4.00;1.40
2174;DHT22;1093;51.424;11.764;2023-03-16T22:28:48;4.00;1.40
2174;DHT22;1093;51.424;11.764;2023-03-16T22:31:19;3.90;1.40
2174;DHT22;1093;51.424;11.764;2023-03-16T22:33:47;3.90;1.40
2174;DHT22;1093;51.424;11.764;2023-03-16T22:36:18;3.90;1.40
2174;DHT22;1093;51.424;11.764;2023-03-16T22:38:52;3.90;1.40
2174;DHT22;1093;51.424;11.764;2023-03-16T22:41:22;3.90;1.40
2174;DHT22;1093;51.424;11.764;2023-03-16T22:43:50;3.90;1.40
2174;DHT22;1093;51.424;11.764;2023-03-16T22:46:19;3.90;1.40
2174;DHT22;1093;51.424;11.764;2023-03-16T22:48:47;3.80;1.40
2174;DHT22;1093;51.424;11.764;2023-03-16T22:51:20;3.80;1.40
2174;DHT22;1093;51.424;11.764;2023-03-16T22:53:53;3.80;1.40
2174;DHT22;1093;51.424;11.764;2023-03-16T22:56:23;3.80;1.40
2174;DHT22;1093;51.424;11.764;2023-03-16T22:58:52;3.70;1.40
2174;DHT22;1093;51.424;11.764;2023-03-16T23:01:24;3.70;1.40
2174;DHT22;1093;51.424;11.764;2023-03-16T23:03:54;3.70;1.40
2174;DHT22;1093;51.424;11.764;2023-03-16T23:06:22;3.70;1.40
2174;DHT22;1093;51.424;11.764;2023-03-16T23:08:51;3.70;1.40
2174;DHT22;1093;51.424;11.764;2023-03-16T23:11:22;3.70;1.40
2174;DHT22;1093;51.424;11.764;2023-03-16T23:13:50;3.70;1.40
2174;DHT22;1093;51.424;11.764;2023-03-16T23:16:20;3.70;1.40
2174;DHT22;1093;51.424;11.764;2023-03-16T23:18:48;3.60;1.40
2174;DHT22;1093;51.424;11.764;2023-03-16T23:21:17;3.60;1.40
2174;DHT22;1093;51.424;11.764;2023-03-16T23:23:45;3.60;1.40
2174;DHT22;1093;51.424;11.764;2023-03-16T23:26:17;3.60;1.40
2174;DHT22;1093;51.424;11.764;2023-03-16T23:28:47;3.60;1.40
2174;DHT22;1093;51.424;11.764;2023-03-16T23:31:15;3.60;1.40
2174;DHT22;1093;51.424;11.764;2023-03-16T23:33:44;3.60;1.40
2174;DHT22;1093;51.424;11.764;2023-03-16T23:36:13;3.60;1.40
2174;DHT22;1093;51.424;11.764;2023-03-16T23:38:40;3.50;1.40
2174;DHT22;1093;51.424;11.764;2023-03-16T23:41:08;3.50;1.40
2174;DHT22;1093;51.424;11.764;2023-03-16T23:43:36;3.50;1.40
2174;DHT22;1093;51.424;11.764;2023-03-16T23:46:06;3.50;1.40
2174;DHT22;1093;51.424;11.764;2023-03-16T23:48:35;3.40;1.40
2174;DHT22;1093;51.424;11.764;2023-03-16T23:51:03;3.40;1.40
2174;DHT22;1093;51.424;11.764;2023-03-16T23:53:31;3.50;1.40
2174;DHT22;1093;51.424;11.764;2023-03-16T23:56:02;3.50;1.40
2174;DHT22;1093;51.424;11.764;2023-03-16T23:58:30;3.40;1.40
